sensor_id;sensor_type;location;lat;lon;timestamp;temperature;humidity
60353;DHT22;46196;52.970;6.954;2022-08-25T00:01:13;21.40;99.90
60353;DHT22;46196;52.970;6.954;2022-08-25T00:03:40;21.40;99.90
60353;DHT22;46196;52.970;6.954;2022-08-25T00:06:07;21.30;99.90
60353;DHT22;46196;52.970;6.954;2022-08-25T00:08:34;21.30;99.90
60353;DHT22;46196;52.970;6.954;2022-08-25T00:11:04;21.20;99.90
60353;DHT22;46196;52.970;6.954;2022-08-25T00:13:30;21.20;99.90
60353;DHT22;46196;52.970;6.954;2022-08-25T00:15:57;21.10;99.90
60353;DHT22;46196;52.970;6.954;2022-08-25T00:18:23;21.10;99.90
60353;DHT22;46196;52.970;6.954;2022-08-25T00:20:49;21.10;99.90
60353;DHT22;46196;52.970;6.954;2022-08-25T00:23:15;21.10;99.90
60353;DHT22;46196;52.970;6.954;2022-08-25T00:25:40;21.00;99.90
60353;DHT22;46196;52.970;6.954;2022-08-25T00:28:06;21.00;99.90
60353;DHT22;46196;52.970;6.954;2022-08-25T00:30:32;21.00;99.90
60353;DHT22;46196;52.970;6.954;2022-08-25T00:32:57;20.90;99.90
60353;DHT22;46196;52.970;6.954;2022-08-25T00:35:24;20.90;99.90
60353;DHT22;46196;52.970;6.954;2022-08-25T00:37:50;20.90;99.90
60353;DHT22;46196;52.970;6.954;2022-08-25T00:40:16;20.80;99.90
60353;DHT22;46196;52.970;6.954;2022-08-25T00:42:42;20.80;99.90
60353;DHT22;46196;52.970;6.954;2022-08-25T00:45:08;20.80;99.90
60353;DHT22;46196;52.970;6.954;2022-08-25T00:47:34;20.80;99.90
60353;DHT22;46196;52.970;6.954;2022-08-25T00:50:02;20.70;99.90
60353;DHT22;46196;52.970;6.954;2022-08-25T00:52:34;20.70;99.90
60353;DHT22;46196;52.970;6.954;2022-08-25T00:55:08;20.70;99.90
60353;DHT22;46196;52.970;6.954;2022-08-25T00:57:54;20.60;99.90
60353;DHT22;46196;52.970;6.954;2022-08-25T01:00:42;20.70;99.90
60353;DHT22;46196;52.970;6.954;2022-08-25T01:03:08;20.60;99.90
60353;DHT22;46196;52.970;6.954;2022-08-25T01:05:34;20.60;99.90
60353;DHT22;46196;52.970;6.954;2022-08-25T01:08:02;20.50;99.90
60353;DHT22;46196;52.970;6.954;2022-08-25T01:10:28;20.50;99.90
60353;DHT22;46196;52.970;6.954;2022-08-25T01:13:00;20.50;99.90
60353;DHT22;46196;52.970;6.954;2022-08-25T01:15:27;20.50;99.90
60353;DHT22;46196;52.970;6.954;2022-08-25T01:17:55;20.40;99.90
60353;DHT22;46196;52.970;6.954;2022-08-25T01:20:24;20.40;99.90
60353;DHT22;46196;52.970;6.954;2022-08-25T01:22:51;20.40;99.90
60353;DHT22;46196;52.970;6.954;2022-08-25T01:28:08;20.30;99.90
60353;DHT22;46196;52.970;6.954;2022-08-25T01:30:34;20.30;99.90
60353;DHT22;46196;52.970;6.954;2022-08-25T01:33:05;20.30;99.90
60353;DHT22;46196;52.970;6.954;2022-08-25T01:35:31;20.20;99.90
60353;DHT22;46196;52.970;6.954;2022-08-25T01:37:59;20.20;99.90
60353;DHT22;46196;52.970;6.954;2022-08-25T01:40:25;20.10;99.90
60353;DHT22;46196;52.970;6.954;2022-08-25T01:45:27;20.10;99.90
60353;DHT22;46196;52.970;6.954;2022-08-25T01:47:53;20.10;99.90
60353;DHT22;46196;52.970;6.954;2022-08-25T01:50:19;20.00;99.90
60353;DHT22;46196;52.970;6.954;2022-08-25T01:52:58;20.00;99.90
60353;DHT22;46196;52.970;6.954;2022-08-25T01:55:24;20.00;99.90
60353;DHT22;46196;52.970;6.954;2022-08-25T01:57:50;20.00;99.90
60353;DHT22;46196;52.970;6.954;2022-08-25T02:00:17;19.90;99.90
60353;DHT22;46196;52.970;6.954;2022-08-25T02:02:43;19.90;99.90
60353;DHT22;46196;52.970;6.954;2022-08-25T02:05:10;19.90;99.90
60353;DHT22;46196;52.970;6.954;2022-08-25T02:07:37;19.90;99.90
60353;DHT22;46196;52.970;6.954;2022-08-25T02:10:05;19.90;99.90
60353;DHT22;46196;52.970;6.954;2022-08-25T02:12:31;19.80;99.90
60353;DHT22;46196;52.970;6.954;2022-08-25T02:14:59;19.80;99.90
60353;DHT22;46196;52.970;6.954;2022-08-25T02:17:27;19.80;99.90
60353;DHT22;46196;52.970;6.954;2022-08-25T02:19:53;19.70;99.90
60353;DHT22;46196;52.970;6.954;2022-08-25T02:22:22;19.70;99.90
60353;DHT22;46196;52.970;6.954;2022-08-25T02:24:48;19.70;99.90
60353;DHT22;46196;52.970;6.954;2022-08-25T02:27:14;19.70;99.90
60353;DHT22;46196;52.970;6.954;2022-08-25T02:29:39;19.60;99.90
60353;DHT22;46196;52.970;6.954;2022-08-25T02:32:06;19.60;99.90
60353;DHT22;46196;52.970;6.954;2022-08-25T02:34:32;19.60;99.90
60353;DHT22;46196;52.970;6.954;2022-08-25T02:36:57;19.60;99.90
60353;DHT22;46196;52.970;6.954;2022-08-25T02:39:23;19.50;99.90
60353;DHT22;46196;52.970;6.954;2022-08-25T02:41:49;19.50;99.90
60353;DHT22;46196;52.970;6.954;2022-08-25T02:44:15;19.50;99.90
60353;DHT22;46196;52.970;6.954;2022-08-25T02:46:41;19.40;99.90
60353;DHT22;46196;52.970;6.954;2022-08-25T02:49:07;19.40;99.90
60353;DHT22;46196;52.970;6.954;2022-08-25T02:51:34;19.40;99.90
60353;DHT22;46196;52.970;6.954;2022-08-25T02:54:02;19.40;99.90
60353;DHT22;46196;52.970;6.954;2022-08-25T02:56:29;19.30;99.90
60353;DHT22;46196;52.970;6.954;2022-08-25T02:58:56;19.30;99.90
60353;DHT22;46196;52.970;6.954;2022-08-25T03:01:22;19.30;99.90
60353;DHT22;46196;52.970;6.954;2022-08-25T03:03:48;19.30;99.90
60353;DHT22;46196;52.970;6.954;2022-08-25T03:06:16;19.30;99.90
60353;DHT22;46196;52.970;6.954;2022-08-25T03:08:42;19.30;99.90
60353;DHT22;46196;52.970;6.954;2022-08-25T03:11:08;19.30;99.90
60353;DHT22;46196;52.970;6.954;2022-08-25T03:13:34;19.20;99.90
60353;DHT22;46196;52.970;6.954;2022-08-25T03:16:01;19.30;99.90
60353;DHT22;46196;52.970;6.954;2022-08-25T03:18:28;19.20;99.90
60353;DHT22;46196;52.970;6.954;2022-08-25T03:20:54;19.20;99.90
60353;DHT22;46196;52.970;6.954;2022-08-25T03:23:20;19.10;99.90
60353;DHT22;46196;52.970;6.954;2022-08-25T03:25:46;19.10;99.90
60353;DHT22;46196;52.970;6.954;2022-08-25T03:28:30;19.10;99.90
60353;DHT22;46196;52.970;6.954;2022-08-25T03:30:58;19.10;99.90
60353;DHT22;46196;52.970;6.954;2022-08-25T03:33:26;19.00;99.90
60353;DHT22;46196;52.970;6.954;2022-08-25T03:35:52;19.00;99.90
60353;DHT22;46196;52.970;6.954;2022-08-25T03:38:17;19.00;99.90
60353;DHT22;46196;52.970;6.954;2022-08-25T03:40:43;19.00;99.90
60353;DHT22;46196;52.970;6.954;2022-08-25T03:43:09;19.00;99.90
60353;DHT22;46196;52.970;6.954;2022-08-25T03:45:39;19.00;99.90
60353;DHT22;46196;52.970;6.954;2022-08-25T03:48:05;18.90;99.90
60353;DHT22;46196;52.970;6.954;2022-08-25T03:50:31;18.90;99.90
60353;DHT22;46196;52.970;6.954;2022-08-25T03:52:57;18.80;99.90
60353;DHT22;46196;52.970;6.954;2022-08-25T03:55:24;18.90;99.90
60353;DHT22;46196;52.970;6.954;2022-08-25T03:57:51;18.80;99.90
60353;DHT22;46196;52.970;6.954;2022-08-25T04:00:17;18.80;99.90
60353;DHT22;46196;52.970;6.954;2022-08-25T04:02:44;18.80;99.90
60353;DHT22;46196;52.970;6.954;2022-08-25T04:05:10;18.70;99.90
60353;DHT22;46196;52.970;6.954;2022-08-25T04:07:36;18.70;99.90
60353;DHT22;46196;52.970;6.954;2022-08-25T04:10:07;18.70;99.90
60353;DHT22;46196;52.970;6.954;2022-08-25T04:12:34;18.70;99.90
60353;DHT22;46196;52.970;6.954;2022-08-25T04:15:01;18.70;99.90
60353;DHT22;46196;52.970;6.954;2022-08-25T04:17:27;18.70;99.90
60353;DHT22;46196;52.970;6.954;2022-08-25T04:19:53;18.60;99.90
60353;DHT22;46196;52.970;6.954;2022-08-25T04:22:18;18.60;99.90
60353;DHT22;46196;52.970;6.954;2022-08-25T04:24:44;18.60;99.90
60353;DHT22;46196;52.970;6.954;2022-08-25T04:27:10;18.60;99.90
60353;DHT22;46196;52.970;6.954;2022-08-25T04:29:36;18.60;99.90
60353;DHT22;46196;52.970;6.954;2022-08-25T04:32:01;18.60;99.90
60353;DHT22;46196;52.970;6.954;2022-08-25T04:34:27;18.60;99.90
60353;DHT22;46196;52.970;6.954;2022-08-25T04:36:54;18.50;99.90
60353;DHT22;46196;52.970;6.954;2022-08-25T04:39:20;18.50;99.90
60353;DHT22;46196;52.970;6.954;2022-08-25T04:41:47;18.50;99.90
60353;DHT22;46196;52.970;6.954;2022-08-25T04:44:13;18.50;99.90
60353;DHT22;46196;52.970;6.954;2022-08-25T04:46:39;18.50;99.90
60353;DHT22;46196;52.970;6.954;2022-08-25T04:49:05;18.40;99.90
60353;DHT22;46196;52.970;6.954;2022-08-25T04:51:35;18.40;99.90
60353;DHT22;46196;52.970;6.954;2022-08-25T04:54:04;18.40;99.90
60353;DHT22;46196;52.970;6.954;2022-08-25T04:56:31;18.40;99.90
60353;DHT22;46196;52.970;6.954;2022-08-25T04:59:03;18.40;99.90
60353;DHT22;46196;52.970;6.954;2022-08-25T05:01:29;18.40;99.90
60353;DHT22;46196;52.970;6.954;2022-08-25T05:03:57;18.40;99.90
60353;DHT22;46196;52.970;6.954;2022-08-25T05:06:24;18.40;99.90
60353;DHT22;46196;52.970;6.954;2022-08-25T05:08:50;18.40;99.90
60353;DHT22;46196;52.970;6.954;2022-08-25T05:11:17;18.40;99.90
60353;DHT22;46196;52.970;6.954;2022-08-25T05:13:48;18.50;99.90
60353;DHT22;46196;52.970;6.954;2022-08-25T05:16:14;18.50;99.90
60353;DHT22;46196;52.970;6.954;2022-08-25T05:18:40;18.50;99.90
60353;DHT22;46196;52.970;6.954;2022-08-25T05:21:11;18.50;99.90
60353;DHT22;46196;52.970;6.954;2022-08-25T05:23:39;18.60;99.90
60353;DHT22;46196;52.970;6.954;2022-08-25T05:26:09;18.60;99.90
60353;DHT22;46196;52.970;6.954;2022-08-25T05:28:35;18.60;99.90
60353;DHT22;46196;52.970;6.954;2022-08-25T05:31:02;18.60;99.90
60353;DHT22;46196;52.970;6.954;2022-08-25T05:33:29;18.60;99.90
60353;DHT22;46196;52.970;6.954;2022-08-25T05:35:55;18.70;99.90
60353;DHT22;46196;52.970;6.954;2022-08-25T05:38:21;18.70;99.90
60353;DHT22;46196;52.970;6.954;2022-08-25T05:41:01;18.70;99.90
60353;DHT22;46196;52.970;6.954;2022-08-25T05:43:27;18.70;99.90
60353;DHT22;46196;52.970;6.954;2022-08-25T05:45:54;18.80;99.90
60353;DHT22;46196;52.970;6.954;2022-08-25T05:48:21;18.80;99.90
60353;DHT22;46196;52.970;6.954;2022-08-25T05:50:54;18.80;99.90
60353;DHT22;46196;52.970;6.954;2022-08-25T05:53:21;18.80;99.90
60353;DHT22;46196;52.970;6.954;2022-08-25T05:55:48;18.80;99.90
60353;DHT22;46196;52.970;6.954;2022-08-25T05:58:14;18.90;99.90
60353;DHT22;46196;52.970;6.954;2022-08-25T06:00:40;19.00;99.90
60353;DHT22;46196;52.970;6.954;2022-08-25T06:03:06;19.00;99.90
60353;DHT22;46196;52.970;6.954;2022-08-25T06:05:32;19.00;99.90
60353;DHT22;46196;52.970;6.954;2022-08-25T06:07:58;19.10;99.90
60353;DHT22;46196;52.970;6.954;2022-08-25T06:10:25;19.00;99.90
60353;DHT22;46196;52.970;6.954;2022-08-25T06:12:52;19.20;99.90
60353;DHT22;46196;52.970;6.954;2022-08-25T06:15:20;19.30;99.90
60353;DHT22;46196;52.970;6.954;2022-08-25T06:17:48;19.30;99.90
60353;DHT22;46196;52.970;6.954;2022-08-25T06:20:20;19.40;99.90
60353;DHT22;46196;52.970;6.954;2022-08-25T06:22:47;19.50;99.90
60353;DHT22;46196;52.970;6.954;2022-08-25T06:25:16;19.50;99.90
60353;DHT22;46196;52.970;6.954;2022-08-25T06:27:42;19.60;99.90
60353;DHT22;46196;52.970;6.954;2022-08-25T06:30:10;19.70;99.90
60353;DHT22;46196;52.970;6.954;2022-08-25T06:32:38;19.70;99.90
60353;DHT22;46196;52.970;6.954;2022-08-25T06:35:07;19.80;99.90
60353;DHT22;46196;52.970;6.954;2022-08-25T06:37:33;19.90;99.90
60353;DHT22;46196;52.970;6.954;2022-08-25T06:39:59;20.00;99.90
60353;DHT22;46196;52.970;6.954;2022-08-25T06:42:26;20.00;99.90
60353;DHT22;46196;52.970;6.954;2022-08-25T06:44:52;20.10;99.90
60353;DHT22;46196;52.970;6.954;2022-08-25T06:47:18;20.20;99.90
60353;DHT22;46196;52.970;6.954;2022-08-25T06:49:44;20.30;99.90
60353;DHT22;46196;52.970;6.954;2022-08-25T06:52:11;20.40;99.90
60353;DHT22;46196;52.970;6.954;2022-08-25T06:54:38;20.50;99.90
60353;DHT22;46196;52.970;6.954;2022-08-25T06:57:04;20.50;99.90
60353;DHT22;46196;52.970;6.954;2022-08-25T06:59:32;20.60;99.90
60353;DHT22;46196;52.970;6.954;2022-08-25T07:01:58;20.70;99.90
60353;DHT22;46196;52.970;6.954;2022-08-25T07:04:24;20.80;99.90
60353;DHT22;46196;52.970;6.954;2022-08-25T07:06:50;20.80;99.90
60353;DHT22;46196;52.970;6.954;2022-08-25T07:09:16;20.90;99.90
60353;DHT22;46196;52.970;6.954;2022-08-25T07:11:43;21.00;99.90
60353;DHT22;46196;52.970;6.954;2022-08-25T07:14:12;21.10;99.90
60353;DHT22;46196;52.970;6.954;2022-08-25T07:16:39;21.20;99.90
60353;DHT22;46196;52.970;6.954;2022-08-25T07:19:05;21.30;99.90
60353;DHT22;46196;52.970;6.954;2022-08-25T07:21:33;21.40;99.90
60353;DHT22;46196;52.970;6.954;2022-08-25T07:24:01;21.50;99.90
60353;DHT22;46196;52.970;6.954;2022-08-25T07:26:30;21.60;99.90
60353;DHT22;46196;52.970;6.954;2022-08-25T07:28:56;21.70;99.90
60353;DHT22;46196;52.970;6.954;2022-08-25T07:31:23;21.80;99.90
60353;DHT22;46196;52.970;6.954;2022-08-25T07:33:49;21.90;99.90
60353;DHT22;46196;52.970;6.954;2022-08-25T07:36:34;22.50;99.90
60353;DHT22;46196;52.970;6.954;2022-08-25T07:39:00;23.60;99.90
60353;DHT22;46196;52.970;6.954;2022-08-25T07:41:35;24.80;99.90
60353;DHT22;46196;52.970;6.954;2022-08-25T07:44:02;25.70;99.90
60353;DHT22;46196;52.970;6.954;2022-08-25T07:46:28;26.70;99.90
60353;DHT22;46196;52.970;6.954;2022-08-25T07:48:54;27.60;99.90
60353;DHT22;46196;52.970;6.954;2022-08-25T07:51:20;28.40;95.50
60353;DHT22;46196;52.970;6.954;2022-08-25T07:53:45;29.10;90.70
60353;DHT22;46196;52.970;6.954;2022-08-25T07:56:13;29.60;83.60
60353;DHT22;46196;52.970;6.954;2022-08-25T07:58:40;30.10;76.70
60353;DHT22;46196;52.970;6.954;2022-08-25T08:01:06;30.60;73.30
60353;DHT22;46196;52.970;6.954;2022-08-25T08:03:33;31.00;68.20
60353;DHT22;46196;52.970;6.954;2022-08-25T08:06:06;31.40;66.30
60353;DHT22;46196;52.970;6.954;2022-08-25T08:08:32;31.70;60.80
60353;DHT22;46196;52.970;6.954;2022-08-25T08:10:58;32.00;60.40
60353;DHT22;46196;52.970;6.954;2022-08-25T08:13:24;32.40;60.10
60353;DHT22;46196;52.970;6.954;2022-08-25T08:15:51;32.80;58.50
60353;DHT22;46196;52.970;6.954;2022-08-25T08:18:19;33.10;57.70
60353;DHT22;46196;52.970;6.954;2022-08-25T08:20:46;33.60;56.70
60353;DHT22;46196;52.970;6.954;2022-08-25T08:23:13;33.90;53.40
60353;DHT22;46196;52.970;6.954;2022-08-25T08:25:39;34.20;53.20
60353;DHT22;46196;52.970;6.954;2022-08-25T08:28:05;34.40;51.70
60353;DHT22;46196;52.970;6.954;2022-08-25T08:30:31;34.50;50.80
60353;DHT22;46196;52.970;6.954;2022-08-25T08:32:57;34.60;50.40
60353;DHT22;46196;52.970;6.954;2022-08-25T08:35:22;34.70;50.30
60353;DHT22;46196;52.970;6.954;2022-08-25T08:37:48;34.90;49.90
60353;DHT22;46196;52.970;6.954;2022-08-25T08:40:15;35.10;49.20
60353;DHT22;46196;52.970;6.954;2022-08-25T08:42:51;35.40;49.00
60353;DHT22;46196;52.970;6.954;2022-08-25T08:45:26;35.60;47.90
60353;DHT22;46196;52.970;6.954;2022-08-25T08:48:09;35.70;47.40
60353;DHT22;46196;52.970;6.954;2022-08-25T08:56:18;35.60;45.90
60353;DHT22;46196;52.970;6.954;2022-08-25T08:58:59;35.60;45.30
60353;DHT22;46196;52.970;6.954;2022-08-25T09:01:31;35.50;44.70
60353;DHT22;46196;52.970;6.954;2022-08-25T09:04:08;35.40;46.70
60353;DHT22;46196;52.970;6.954;2022-08-25T09:06:44;35.40;45.00
60353;DHT22;46196;52.970;6.954;2022-08-25T09:09:28;35.50;44.50
60353;DHT22;46196;52.970;6.954;2022-08-25T09:23:36;35.90;45.00
60353;DHT22;46196;52.970;6.954;2022-08-25T09:26:28;36.00;43.00
60353;DHT22;46196;52.970;6.954;2022-08-25T09:29:18;36.00;43.50
60353;DHT22;46196;52.970;6.954;2022-08-25T09:31:46;36.00;43.90
60353;DHT22;46196;52.970;6.954;2022-08-25T09:34:22;35.90;43.50
60353;DHT22;46196;52.970;6.954;2022-08-25T09:36:49;35.80;43.60
60353;DHT22;46196;52.970;6.954;2022-08-25T09:39:18;35.60;42.70
60353;DHT22;46196;52.970;6.954;2022-08-25T09:47:03;35.50;43.30
60353;DHT22;46196;52.970;6.954;2022-08-25T09:49:47;35.50;42.70
60353;DHT22;46196;52.970;6.954;2022-08-25T09:55:16;35.40;41.70
60353;DHT22;46196;52.970;6.954;2022-08-25T09:57:47;35.30;41.80
60353;DHT22;46196;52.970;6.954;2022-08-25T10:03:09;34.90;41.00
60353;DHT22;46196;52.970;6.954;2022-08-25T10:06:03;34.60;41.40
60353;DHT22;46196;52.970;6.954;2022-08-25T10:08:39;34.60;41.80
60353;DHT22;46196;52.970;6.954;2022-08-25T10:11:08;34.30;41.50
60353;DHT22;46196;52.970;6.954;2022-08-25T10:13:48;34.00;42.20
60353;DHT22;46196;52.970;6.954;2022-08-25T10:16:24;33.80;42.70
60353;DHT22;46196;52.970;6.954;2022-08-25T10:19:23;33.60;44.00
60353;DHT22;46196;52.970;6.954;2022-08-25T10:22:22;33.50;42.30
60353;DHT22;46196;52.970;6.954;2022-08-25T10:24:50;33.20;42.60
60353;DHT22;46196;52.970;6.954;2022-08-25T10:30:07;33.10;42.20
60353;DHT22;46196;52.970;6.954;2022-08-25T10:35:23;33.10;43.40
60353;DHT22;46196;52.970;6.954;2022-08-25T10:40:55;33.00;43.10
60353;DHT22;46196;52.970;6.954;2022-08-25T10:46:48;33.00;42.80
60353;DHT22;46196;52.970;6.954;2022-08-25T10:49:33;32.40;42.00
60353;DHT22;46196;52.970;6.954;2022-08-25T10:52:04;32.90;42.80
60353;DHT22;46196;52.970;6.954;2022-08-25T10:57:16;32.90;43.30
60353;DHT22;46196;52.970;6.954;2022-08-25T11:00:04;32.90;43.50
60353;DHT22;46196;52.970;6.954;2022-08-25T11:02:45;33.00;43.40
60353;DHT22;46196;52.970;6.954;2022-08-25T11:08:16;33.10;43.00
60353;DHT22;46196;52.970;6.954;2022-08-25T11:10:51;33.20;42.60
60353;DHT22;46196;52.970;6.954;2022-08-25T11:16:13;33.50;41.20
60353;DHT22;46196;52.970;6.954;2022-08-25T11:18:52;33.50;42.10
60353;DHT22;46196;52.970;6.954;2022-08-25T11:21:40;33.50;41.80
60353;DHT22;46196;52.970;6.954;2022-08-25T11:26:54;33.60;41.20
60353;DHT22;46196;52.970;6.954;2022-08-25T11:29:24;33.60;40.60
60353;DHT22;46196;52.970;6.954;2022-08-25T11:31:52;33.60;40.40
60353;DHT22;46196;52.970;6.954;2022-08-25T11:34:19;33.50;40.90
60353;DHT22;46196;52.970;6.954;2022-08-25T11:36:55;33.60;41.10
60353;DHT22;46196;52.970;6.954;2022-08-25T11:44:50;33.60;41.20
60353;DHT22;46196;52.970;6.954;2022-08-25T11:50:27;33.90;40.00
60353;DHT22;46196;52.970;6.954;2022-08-25T11:52:55;33.90;39.80
60353;DHT22;46196;52.970;6.954;2022-08-25T11:55:44;33.90;40.40
60353;DHT22;46196;52.970;6.954;2022-08-25T11:58:39;34.00;40.50
60353;DHT22;46196;52.970;6.954;2022-08-25T12:04:38;34.10;39.40
60353;DHT22;46196;52.970;6.954;2022-08-25T12:18:37;34.30;38.60
60353;DHT22;46196;52.970;6.954;2022-08-25T12:24:10;34.10;39.20
60353;DHT22;46196;52.970;6.954;2022-08-25T12:29:36;34.20;39.50
60353;DHT22;46196;52.970;6.954;2022-08-25T12:45:45;34.60;40.00
60353;DHT22;46196;52.970;6.954;2022-08-25T12:56:55;34.90;40.00
60353;DHT22;46196;52.970;6.954;2022-08-25T12:59:31;35.00;39.90
60353;DHT22;46196;52.970;6.954;2022-08-25T13:10:50;34.80;38.80
60353;DHT22;46196;52.970;6.954;2022-08-25T13:16:16;34.80;38.50
60353;DHT22;46196;52.970;6.954;2022-08-25T13:18:42;34.90;38.40
60353;DHT22;46196;52.970;6.954;2022-08-25T13:21:22;35.00;39.10
60353;DHT22;46196;52.970;6.954;2022-08-25T13:23:52;35.10;39.80
60353;DHT22;46196;52.970;6.954;2022-08-25T13:26:26;35.30;39.00
60353;DHT22;46196;52.970;6.954;2022-08-25T13:31:34;35.40;37.60
60353;DHT22;46196;52.970;6.954;2022-08-25T13:34:08;35.50;37.60
60353;DHT22;46196;52.970;6.954;2022-08-25T13:36:43;35.50;37.40
60353;DHT22;46196;52.970;6.954;2022-08-25T13:39:28;35.40;37.60
60353;DHT22;46196;52.970;6.954;2022-08-25T13:41:56;35.40;37.70
60353;DHT22;46196;52.970;6.954;2022-08-25T13:44:24;35.30;38.30
60353;DHT22;46196;52.970;6.954;2022-08-25T13:47:09;35.40;38.80
60353;DHT22;46196;52.970;6.954;2022-08-25T13:49:36;35.50;37.70
60353;DHT22;46196;52.970;6.954;2022-08-25T13:52:03;35.40;38.10
60353;DHT22;46196;52.970;6.954;2022-08-25T13:54:33;35.40;38.10
60353;DHT22;46196;52.970;6.954;2022-08-25T13:57:21;35.40;38.00
60353;DHT22;46196;52.970;6.954;2022-08-25T13:59:50;35.50;37.70
60353;DHT22;46196;52.970;6.954;2022-08-25T14:02:41;35.50;39.10
60353;DHT22;46196;52.970;6.954;2022-08-25T14:05:08;35.70;38.10
60353;DHT22;46196;52.970;6.954;2022-08-25T14:07:35;35.80;38.20
60353;DHT22;46196;52.970;6.954;2022-08-25T14:12:32;35.70;38.00
60353;DHT22;46196;52.970;6.954;2022-08-25T14:18:03;35.60;37.20
60353;DHT22;46196;52.970;6.954;2022-08-25T14:20:31;35.50;38.00
60353;DHT22;46196;52.970;6.954;2022-08-25T14:23:01;35.50;38.00
60353;DHT22;46196;52.970;6.954;2022-08-25T14:25:28;35.50;37.90
60353;DHT22;46196;52.970;6.954;2022-08-25T14:28:02;35.50;38.30
60353;DHT22;46196;52.970;6.954;2022-08-25T14:30:29;35.50;38.70
60353;DHT22;46196;52.970;6.954;2022-08-25T14:32:55;35.50;38.60
60353;DHT22;46196;52.970;6.954;2022-08-25T14:35:21;35.50;39.00
60353;DHT22;46196;52.970;6.954;2022-08-25T14:37:47;35.60;39.20
60353;DHT22;46196;52.970;6.954;2022-08-25T14:40:14;35.70;39.20
60353;DHT22;46196;52.970;6.954;2022-08-25T14:42:45;35.80;38.60
60353;DHT22;46196;52.970;6.954;2022-08-25T14:45:13;35.80;38.00
60353;DHT22;46196;52.970;6.954;2022-08-25T14:47:38;35.90;37.70
60353;DHT22;46196;52.970;6.954;2022-08-25T14:50:05;35.80;37.10
60353;DHT22;46196;52.970;6.954;2022-08-25T14:52:32;35.70;37.10
60353;DHT22;46196;52.970;6.954;2022-08-25T14:54:57;35.70;38.00
60353;DHT22;46196;52.970;6.954;2022-08-25T14:57:24;35.60;38.00
60353;DHT22;46196;52.970;6.954;2022-08-25T14:59:50;35.70;38.60
60353;DHT22;46196;52.970;6.954;2022-08-25T15:02:18;35.70;38.30
60353;DHT22;46196;52.970;6.954;2022-08-25T15:04:57;35.70;38.30
60353;DHT22;46196;52.970;6.954;2022-08-25T15:07:25;35.60;38.20
60353;DHT22;46196;52.970;6.954;2022-08-25T15:10:09;35.60;38.60
60353;DHT22;46196;52.970;6.954;2022-08-25T15:12:35;35.60;38.80
60353;DHT22;46196;52.970;6.954;2022-08-25T15:15:01;35.60;38.40
60353;DHT22;46196;52.970;6.954;2022-08-25T15:17:28;35.70;38.40
60353;DHT22;46196;52.970;6.954;2022-08-25T15:19:54;35.60;37.60
60353;DHT22;46196;52.970;6.954;2022-08-25T15:22:20;35.60;37.80
60353;DHT22;46196;52.970;6.954;2022-08-25T15:24:45;35.60;37.80
60353;DHT22;46196;52.970;6.954;2022-08-25T15:27:12;35.60;37.70
60353;DHT22;46196;52.970;6.954;2022-08-25T15:29:40;35.60;37.50
60353;DHT22;46196;52.970;6.954;2022-08-25T15:32:07;35.60;38.00
60353;DHT22;46196;52.970;6.954;2022-08-25T15:34:34;35.60;38.10
60353;DHT22;46196;52.970;6.954;2022-08-25T15:37:07;35.50;38.00
60353;DHT22;46196;52.970;6.954;2022-08-25T15:39:35;35.60;38.30
60353;DHT22;46196;52.970;6.954;2022-08-25T15:42:01;35.70;38.60
60353;DHT22;46196;52.970;6.954;2022-08-25T15:44:27;35.70;38.10
60353;DHT22;46196;52.970;6.954;2022-08-25T15:46:53;35.80;37.70
60353;DHT22;46196;52.970;6.954;2022-08-25T15:49:19;35.70;37.80
60353;DHT22;46196;52.970;6.954;2022-08-25T15:51:45;35.70;37.80
60353;DHT22;46196;52.970;6.954;2022-08-25T15:54:11;35.60;37.70
60353;DHT22;46196;52.970;6.954;2022-08-25T15:56:39;35.60;37.90
60353;DHT22;46196;52.970;6.954;2022-08-25T15:59:05;35.60;38.20
60353;DHT22;46196;52.970;6.954;2022-08-25T16:01:32;35.60;38.50
60353;DHT22;46196;52.970;6.954;2022-08-25T16:03:57;35.60;38.60
60353;DHT22;46196;52.970;6.954;2022-08-25T16:06:24;35.70;38.90
60353;DHT22;46196;52.970;6.954;2022-08-25T16:08:50;35.60;39.10
60353;DHT22;46196;52.970;6.954;2022-08-25T16:11:25;35.50;39.30
60353;DHT22;46196;52.970;6.954;2022-08-25T16:13:53;35.50;38.60
60353;DHT22;46196;52.970;6.954;2022-08-25T16:16:21;35.50;39.10
60353;DHT22;46196;52.970;6.954;2022-08-25T16:18:46;35.50;38.90
60353;DHT22;46196;52.970;6.954;2022-08-25T16:21:17;35.40;39.10
60353;DHT22;46196;52.970;6.954;2022-08-25T16:23:44;35.40;39.00
60353;DHT22;46196;52.970;6.954;2022-08-25T16:26:10;35.40;39.00
60353;DHT22;46196;52.970;6.954;2022-08-25T16:28:38;35.40;39.30
60353;DHT22;46196;52.970;6.954;2022-08-25T16:31:04;35.40;39.50
60353;DHT22;46196;52.970;6.954;2022-08-25T16:33:31;35.40;39.50
60353;DHT22;46196;52.970;6.954;2022-08-25T16:36:13;35.40;39.60
60353;DHT22;46196;52.970;6.954;2022-08-25T16:38:41;35.30;39.60
60353;DHT22;46196;52.970;6.954;2022-08-25T16:41:08;35.30;39.80
60353;DHT22;46196;52.970;6.954;2022-08-25T16:43:35;35.20;39.90
60353;DHT22;46196;52.970;6.954;2022-08-25T16:46:05;35.10;40.00
60353;DHT22;46196;52.970;6.954;2022-08-25T16:48:32;35.10;39.90
60353;DHT22;46196;52.970;6.954;2022-08-25T16:50:58;35.10;40.30
60353;DHT22;46196;52.970;6.954;2022-08-25T16:53:24;35.00;40.50
60353;DHT22;46196;52.970;6.954;2022-08-25T16:56:09;35.00;40.10
60353;DHT22;46196;52.970;6.954;2022-08-25T16:58:35;34.90;40.00
60353;DHT22;46196;52.970;6.954;2022-08-25T17:01:10;34.80;40.30
60353;DHT22;46196;52.970;6.954;2022-08-25T17:03:38;34.70;40.40
60353;DHT22;46196;52.970;6.954;2022-08-25T17:06:04;34.60;40.90
60353;DHT22;46196;52.970;6.954;2022-08-25T17:08:31;34.50;41.10
60353;DHT22;46196;52.970;6.954;2022-08-25T17:13:33;34.20;41.50
60353;DHT22;46196;52.970;6.954;2022-08-25T17:15:59;34.00;41.80
60353;DHT22;46196;52.970;6.954;2022-08-25T17:18:27;33.90;41.90
60353;DHT22;46196;52.970;6.954;2022-08-25T17:21:02;33.80;42.20
60353;DHT22;46196;52.970;6.954;2022-08-25T17:23:29;33.70;42.30
60353;DHT22;46196;52.970;6.954;2022-08-25T17:25:55;33.70;42.30
60353;DHT22;46196;52.970;6.954;2022-08-25T17:28:21;33.60;42.50
60353;DHT22;46196;52.970;6.954;2022-08-25T17:30:47;33.50;42.80
60353;DHT22;46196;52.970;6.954;2022-08-25T17:33:13;33.30;43.30
60353;DHT22;46196;52.970;6.954;2022-08-25T17:35:40;33.20;43.10
60353;DHT22;46196;52.970;6.954;2022-08-25T17:38:07;33.10;43.20
60353;DHT22;46196;52.970;6.954;2022-08-25T17:40:33;32.90;43.30
60353;DHT22;46196;52.970;6.954;2022-08-25T17:42:59;32.80;43.70
60353;DHT22;46196;52.970;6.954;2022-08-25T17:45:25;32.70;44.00
60353;DHT22;46196;52.970;6.954;2022-08-25T17:47:51;32.50;44.30
60353;DHT22;46196;52.970;6.954;2022-08-25T17:50:17;32.40;44.50
60353;DHT22;46196;52.970;6.954;2022-08-25T17:52:43;32.40;45.10